Latest Weather Observations for Darwin Harbour

IDD60901

Issued at 8:01 pm CST Wednesday 2 September 2015 (issued every 10 minutes, with the page automatically refreshed every 10 minutes)

About weather observations | Map of Darwin area stations | Latest observations for Darwin area | Other Formats
Station Details ID: 014072 Name: DARWIN NTC AWS Lat: -12.47 Lon: 130.85 Height: 0.0 m
Data from the previous 72 hours. | See also: Recent months for locations in Northern Territory
Date/Time
CST
Tmp

°C
App
Tmp
°C
Dew
Point
°C
Rel
Hum
%
Delta-T

°C
Wind Press
QNH
hPa
Press
MSL
hPa
Rain
since
9 am
mm
Dir
 
Spd
km/h
Gust
km/h
Spd
kts
Gust
kts
02/08:00pm 27.6 - - - - WSW 15 20 8 11 1012.9 1012.8 -
02/07:30pm 27.6 - - - - WSW 15 20 8 11 1012.5 1012.4 -
02/07:00pm 27.7 - - - - WSW 17 22 9 12 1012.1 1012.0 -
02/06:30pm 28.0 - - - - W 20 26 11 14 1011.8 1011.7 -
02/06:00pm 28.0 - - - - W 19 24 10 13 1011.5 1011.4 -
02/05:30pm 29.0 - - - - WNW 17 22 9 12 1011.3 1011.2 -
02/05:00pm 29.2 - - - - NW 15 24 8 13 1011.1 1011.0 -
02/04:30pm 28.9 - - - - NW 20 30 11 16 1011.0 1010.9 -
02/04:00pm 29.2 - - - - NW 17 30 9 16 1011.0 1010.9 -
02/03:30pm 29.8 - - - - NW 15 24 8 13 1011.2 1011.1 -
02/03:00pm 29.4 - - - - NW 17 28 9 15 1011.5 1011.4 -
02/02:30pm 29.2 - - - - NW 20 33 11 18 1012.0 1011.9 -
02/02:00pm 28.6 - - - - NNW 17 32 9 17 1012.7 1012.6 -
02/01:30pm 28.6 - - - - NNW 15 28 8 15 1013.3 1013.2 -
02/01:00pm 29.0 - - - - WNW 13 20 7 11 1013.7 1013.6 -
02/12:30pm 28.7 - - - - WNW 11 15 6 8 1014.3 1014.2 -
02/12:00pm 27.6 - - - - W 7 11 4 6 1014.7 1014.6 -
02/11:30am 27.1 - - - - WSW 6 7 3 4 1015.4 1015.3 -
02/11:00am 27.4 - - - - WSW 4 6 2 3 1015.9 1015.8 -
02/10:30am 26.9 - - - - S 4 6 2 3 1016.2 1016.1 -
02/10:00am 27.2 - - - - SE 4 6 2 3 1016.3 1016.2 -
02/09:30am 26.4 - - - - SE 6 6 3 3 1016.2 1016.1 -
02/09:00am 26.1 - - - - ESE 6 7 3 4 1016.0 1015.9 -
02/08:30am 25.8 - - - - ENE 6 9 3 5 1015.7 1015.6 -
02/08:00am 26.2 - - - - ENE 6 7 3 4 1015.3 1015.2 -
02/07:30am 25.7 - - - - ENE 2 4 1 2 1015.0 1014.9 -
02/07:00am 25.9 - - - - WSW 4 6 2 3 1014.5 1014.4 -
02/06:30am 25.6 - - - - SSW 6 7 3 4 1013.9 1013.8 -
02/06:00am 25.9 - - - - SW 6 9 3 5 1013.5 1013.4 -
02/05:30am 25.4 - - - - SSE 6 9 3 5 1013.3 1013.2 -
02/05:00am 25.6 - - - - S 6 9 3 5 1013.3 1013.2 -
02/04:30am 25.8 - - - - SSW 6 9 3 5 1013.1 1013.0 -
02/04:00am 26.0 - - - - SW 7 11 4 6 1013.3 1013.2 -
02/03:30am 26.0 - - - - WSW 4 6 2 3 1013.2 1013.1 -
02/03:00am 25.8 - - - - NW 2 4 1 2 1013.1 1013.0 -
02/02:30am 25.9 - - - - WNW 4 9 2 5 1013.3 1013.2 -
02/02:00am 25.9 - - - - W 6 9 3 5 1013.3 1013.2 -
02/01:30am 26.1 - - - - W 7 13 4 7 1013.4 1013.3 -
02/01:00am 26.1 - - - - W 9 13 5 7 1013.5 1013.4 -
02/12:30am 26.2 - - - - W 11 17 6 9 1013.7 1013.6 -
02/12:00am 26.2 - - - - W 9 13 5 7 1013.9 1013.8 -
 
Date/Time
CST
Tmp

°C
App
Tmp
°C
Dew
Point
°C
Rel
Hum
%
Delta-T

°C
Wind Press
QNH
hPa
Press
MSL
hPa
Rain
since
9 am
mm
Dir
 
Spd
km/h
Gust
km/h
Spd
kts
Gust
kts
01/11:30pm 26.3 - - - - W 11 19 6 10 1013.7 1013.6 -
01/11:00pm 26.3 - - - - W 13 19 7 10 1013.6 1013.5 -
01/10:30pm 26.3 - - - - WSW 13 15 7 8 1013.5 1013.4 -
01/10:00pm 26.4 - - - - WSW 13 17 7 9 1013.2 1013.1 -
01/09:30pm 26.6 - - - - WSW 15 20 8 11 1013.2 1013.1 -
01/09:00pm 26.6 - - - - WSW 17 22 9 12 1013.1 1013.0 -
01/08:30pm 26.8 - - - - WSW 15 20 8 11 1012.6 1012.5 -
01/08:00pm 26.8 - - - - W 19 22 10 12 1012.3 1012.2 -
01/07:30pm 26.9 - - - - W 22 28 12 15 1011.8 1011.7 -
01/07:00pm 27.3 - - - - W 20 26 11 14 1011.4 1011.3 -
01/06:30pm 28.0 - - - - W 17 20 9 11 1011.2 1011.1 -
01/06:00pm 28.4 - - - - W 17 22 9 12 1011.0 1010.9 -
01/05:30pm 28.8 - - - - WNW 13 20 7 11 1010.9 1010.8 -
01/05:00pm 28.6 - - - - WNW 17 24 9 13 1010.7 1010.6 -
01/04:30pm 28.7 - - - - WNW 17 24 9 13 1010.6 1010.5 -
01/04:00pm 29.4 - - - - NW 13 24 7 13 1010.8 1010.7 -
01/03:30pm 29.9 - - - - NW 13 22 7 12 1011.0 1010.9 -
01/03:00pm 29.4 - - - - NW 11 20 6 11 1011.3 1011.2 -
01/02:30pm 28.7 - - - - WNW 13 24 7 13 1011.8 1011.7 -
01/02:00pm 28.5 - - - - WNW 19 28 10 15 1012.3 1012.2 -
01/01:30pm 27.9 - - - - WNW 17 26 9 14 1012.7 1012.6 -
01/01:00pm 28.6 - - - - NW 11 20 6 11 1013.0 1012.9 -
01/12:30pm 28.4 - - - - W 11 17 6 9 1013.5 1013.4 -
01/12:00pm 27.9 - - - - WNW 7 15 4 8 1014.0 1013.9 -
01/11:30am 27.5 - - - - WNW 13 19 7 10 1014.5 1014.4 -
01/11:00am 27.2 - - - - W 9 13 5 7 1014.9 1014.8 -
01/10:30am 26.6 - - - - W 11 17 6 9 1015.1 1015.0 -
01/10:00am 26.5 - - - - SW 6 9 3 5 1015.4 1015.3 -
01/09:30am 26.2 - - - - SSW 4 7 2 4 1015.3 1015.2 -
01/09:00am 26.2 - - - - E 6 7 3 4 1015.1 1015.0 -
01/08:30am 26.3 - - - - ENE 6 7 3 4 1014.9 1014.8 -
01/08:00am 25.6 - - - - ENE 6 9 3 5 1014.4 1014.3 -
01/07:30am 24.9 - - - - NE 6 9 3 5 1013.9 1013.8 -
01/07:00am 24.6 - - - - ENE 6 9 3 5 1013.7 1013.6 -
01/06:30am 25.1 - - - - NE 4 9 2 5 1013.4 1013.3 -
01/06:00am 25.0 - - - - NE 4 7 2 4 1013.1 1013.0 -
01/05:30am 25.3 - - - - NE 4 7 2 4 1012.7 1012.6 -
01/05:00am 25.7 - - - - NW 2 4 1 2 1012.5 1012.4 -
01/04:30am 25.4 - - - - NE 4 6 2 3 1012.6 1012.5 -
01/04:00am 25.9 - - - - WSW 2 6 1 3 1012.6 1012.5 -
01/03:30am 25.8 - - - - WNW 2 4 1 2 1012.7 1012.6 -
01/03:00am 25.8 - - - - NW 4 6 2 3 1012.8 1012.7 -
01/02:30am 26.0 - - - - WSW 4 6 2 3 1012.9 1012.8 -
01/02:00am 25.9 - - - - WSW 6 9 3 5 1013.1 1013.0 -
01/01:30am 25.8 - - - - W 6 9 3 5 1013.2 1013.1 -
01/01:00am 25.9 - - - - W 7 11 4 6 1013.4 1013.3 -
01/12:30am 26.0 - - - - W 9 13 5 7 1013.7 1013.6 -
01/12:00am 26.0 - - - - W 9 13 5 7 1013.7 1013.6 -
 
Date/Time
CST
Tmp

°C
App
Tmp
°C
Dew
Point
°C
Rel
Hum
%
Delta-T

°C
Wind Press
QNH
hPa
Press
MSL
hPa
Rain
since
9 am
mm
Dir
 
Spd
km/h
Gust
km/h
Spd
kts
Gust
kts
31/11:30pm 26.1 - - - - WSW 9 15 5 8 1013.7 1013.6 -
31/11:00pm 26.2 - - - - W 9 13 5 7 1013.6 1013.5 -
31/10:30pm 26.2 - - - - WSW 9 13 5 7 1013.5 1013.4 -
31/10:00pm 26.3 - - - - WSW 11 15 6 8 1013.4 1013.3 -
31/09:30pm 26.4 - - - - WSW 15 19 8 10 1013.3 1013.2 -
31/09:00pm 26.5 - - - - WSW 17 22 9 12 1013.0 1012.9 -
31/08:30pm 26.6 - - - - WSW 15 20 8 11 1012.8 1012.7 -
31/08:00pm 26.7 - - - - W 15 20 8 11 1012.7 1012.6 -
31/07:30pm 26.9 - - - - W 17 22 9 12 1012.3 1012.2 -
31/07:00pm 27.0 - - - - W 20 26 11 14 1012.2 1012.1 -
31/06:30pm 27.4 - - - - W 19 24 10 13 1011.8 1011.7 -
31/06:00pm 28.0 - - - - WNW 17 22 9 12 1011.6 1011.5 -
31/05:30pm 28.5 - - - - WNW 15 20 8 11 1011.7 1011.6 -
31/05:00pm 28.2 - - - - WNW 19 26 10 14 1011.6 1011.5 -
31/04:30pm 27.9 - - - - WNW 20 28 11 15 1011.4 1011.3 -
31/04:00pm 27.9 - - - - WNW 19 28 10 15 1011.5 1011.4 -
31/03:30pm 28.3 - - - - NW 15 28 8 15 1011.8 1011.7 -
31/03:00pm 28.5 - - - - NW 15 30 8 16 1012.2 1012.1 -
31/02:30pm 27.7 - - - - NW 15 28 8 15 1012.7 1012.6 -
31/02:00pm 28.4 - - - - NW 19 32 10 17 1013.0 1012.9 -
31/01:30pm 27.7 - - - - WNW 19 28 10 15 1013.4 1013.3 -
31/01:00pm 27.7 - - - - WNW 15 24 8 13 1013.7 1013.6 -
31/12:30pm 28.1 - - - - NW 11 19 6 10 1014.2 1014.1 -
31/12:00pm 28.2 - - - - NW 11 20 6 11 1014.6 1014.5 -
31/11:30am 27.5 - - - - WNW 11 17 6 9 1015.1 1015.0 -
31/11:00am 27.0 - - - - WNW 13 19 7 10 1015.2 1015.1 -
31/10:30am 26.9 - - - - NW 11 19 6 10 1015.5 1015.4 -
31/10:00am 27.2 - - - - NW 11 19 6 10 1015.5 1015.4 -
31/09:30am 26.8 - - - - NW 11 19 6 10 1015.4 1015.3 -
31/09:00am 27.4 - - - - N 7 17 4 9 1015.1 1015.0 -
31/08:30am 26.0 - - - - ENE 6 9 3 5 1015.3 1015.2 -
31/08:00am 26.0 - - - - NE 2 4 1 2 1014.8 1014.7 -
31/07:30am 25.2 - - - - NE 4 7 2 4 1014.6 1014.5 -
31/07:00am 25.0 - - - - NE 7 13 4 7 1014.3 1014.2 -
31/06:30am 24.6 - - - - NE 7 13 4 7 1013.9 1013.8 -
31/06:00am 24.2 - - - - NE 9 15 5 8 1013.3 1013.2 -
31/05:30am 24.2 - - - - NE 7 13 4 7 1013.2 1013.1 -
31/05:00am 24.1 - - - - ENE 7 15 4 8 1013.3 1013.2 -
31/04:30am 24.4 - - - - NE 6 11 3 6 1013.4 1013.3 -
31/04:00am 24.9 - - - - NE 7 15 4 8 1013.5 1013.4 -
31/03:30am 25.1 - - - - NE 6 7 3 4 1013.4 1013.3 -
31/03:00am 25.6 - - - - SSW 2 4 1 2 1013.4 1013.3 -
31/02:30am 25.6 - - - - S 2 4 1 2 1013.7 1013.6 -
31/02:00am 25.7 - - - - SSW 4 6 2 3 1014.0 1013.9 -
31/01:30am 25.7 - - - - SW 6 7 3 4 1014.2 1014.1 -
31/01:00am 25.9 - - - - WSW 4 7 2 4 1014.5 1014.4 -
31/12:30am 26.0 - - - - WSW 6 7 3 4 1014.9 1014.8 -
31/12:00am 26.1 - - - - WSW 7 11 4 6 1015.0 1014.9 -
 
Date/Time
CST
Tmp

°C
App
Tmp
°C
Dew
Point
°C
Rel
Hum
%
Delta-T

°C
Wind Press
QNH
hPa
Press
MSL
hPa
Rain
since
9 am
mm
Dir
 
Spd
km/h
Gust
km/h
Spd
kts
Gust
kts
30/11:30pm 26.2 - - - - WSW 7 13 4 7 1015.0 1014.9 -
30/11:00pm 26.3 - - - - WSW 9 13 5 7 1014.7 1014.6 -
30/10:30pm 26.4 - - - - SW 13 22 7 12 1014.5 1014.4 -
30/10:00pm 26.4 - - - - SW 17 22 9 12 1014.1 1014.0 -
30/09:30pm 26.6 - - - - SW 19 22 10 12 1013.8 1013.7 -
30/09:00pm 26.7 - - - - WSW 19 22 10 12 1013.5 1013.4 -
30/08:30pm 26.8 - - - - WSW 20 24 11 13 1013.2 1013.1 -

Latest Capital City Observations: Canberra | Sydney | Melbourne | Brisbane | Adelaide | Perth | Hobart | Darwin

Other Formats:

Comma delimited format used in spreadsheet applications
http://www.bom.gov.au/fwo/IDD60901/IDD60901.95122.axf

JavaScript Object Notation format (JSON) in row-major order
http://www.bom.gov.au/fwo/IDD60901/IDD60901.95122.json